Time;durP1;ratioP1;P1;durP2;ratioP2;P2;SDS_P1;SDS_P2;PMS_P1;PMS_P2;Temp;Humidity;BMP_temperature;BMP_pressure;BME280_temperature;BME280_humidity;BME280_pressure;Samples;Min_cycle;Max_cycle;Signal;HPM_P1;HPM_P2
2022/10/13 00:02:05;;;;;;;31.08;17.60;;;;;;;9.28;100.00;101944.66;5033614;28;20136;-90
2022/10/13 00:04:30;;;;;;;32.72;16.73;;;;;;;9.33;100.00;101937.56;5033313;28;20025;-79
2022/10/13 00:06:56;;;;;;;32.55;17.75;;;;;;;9.26;100.00;101919.84;5033438;28;20120;-87
2022/10/13 00:09:21;;;;;;;30.98;17.85;;;;;;;9.37;100.00;101941.72;5033536;28;20021;-85
2022/10/13 00:11:46;;;;;;;31.52;17.60;;;;;;;9.07;100.00;101883.66;5033217;28;20052;-75
2022/10/13 00:14:12;;;;;;;30.40;17.90;;;;;;;9.33;100.00;101911.78;5033401;28;20032;-87
2022/10/13 00:16:37;;;;;;;26.98;16.65;;;;;;;9.15;100.00;101877.31;5033184;28;20037;-75
2022/10/13 00:19:02;;;;;;;29.85;17.52;;;;;;;9.44;100.00;101919.09;5033191;28;20037;-90
2022/10/13 00:21:28;;;;;;;33.63;17.70;;;;;;;9.41;100.00;101907.16;5033188;28;20024;-89
2022/10/13 00:23:53;;;;;;;32.13;18.10;;;;;;;9.07;100.00;101847.59;5033154;28;20110;-93
2022/10/13 00:26:21;;;;;;;31.40;18.17;;;;;;;9.51;100.00;101917.09;5032902;28;20029;-88
2022/10/13 00:28:47;;;;;;;27.23;16.77;;;;;;;9.39;100.00;101882.34;5033265;28;20037;-75
2022/10/13 00:31:18;;;;;;;30.98;18.40;;;;;;;9.56;100.00;101907.44;5033072;28;20034;-91
2022/10/13 00:33:43;;;;;;;31.13;17.55;;;;;;;9.61;100.00;101906.34;5033087;28;20148;-91
2022/10/13 00:36:08;;;;;;;30.00;17.30;;;;;;;9.47;100.00;101888.88;5032740;28;20480;-75
2022/10/13 00:38:34;;;;;;;29.35;17.77;;;;;;;9.63;100.00;101909.69;5032962;28;20111;-86
2022/10/13 00:41:00;;;;;;;32.83;18.48;;;;;;;9.50;100.00;101893.06;5032986;28;20144;-77
2022/10/13 00:43:47;;;;;;;30.40;17.00;;;;;;;9.65;100.00;101909.66;5033002;28;20492;-78
2022/10/13 00:46:13;;;;;;;27.83;17.30;;;;;;;9.58;100.00;101895.31;5032836;28;20032;-76
2022/10/13 00:48:40;;;;;;;29.90;17.33;;;;;;;9.70;100.00;101912.84;5032790;28;20465;-75
2022/10/13 00:51:07;;;;;;;30.75;17.02;;;;;;;9.66;100.00;101904.41;5032695;28;20033;-80
2022/10/13 00:53:37;;;;;;;28.42;17.63;;;;;;;9.47;100.00;101864.81;5032783;28;20030;-76
2022/10/13 00:56:06;;;;;;;27.95;15.80;;;;;;;9.73;100.00;101907.56;5032685;28;20075;-76
2022/10/13 00:58:32;;;;;;;32.22;16.80;;;;;;;9.70;100.00;101911.09;5032648;28;20056;-83
2022/10/13 01:00:58;;;;;;;25.17;16.92;;;;;;;9.68;100.00;101905.19;5032687;28;20075;-78
2022/10/13 01:03:25;;;;;;;27.80;18.02;;;;;;;9.70;100.00;101910.28;5032700;28;20103;-76
2022/10/13 01:05:54;;;;;;;30.42;17.13;;;;;;;9.69;100.00;101900.88;5032532;28;20045;-75
2022/10/13 01:08:21;;;;;;;27.58;16.33;;;;;;;9.68;100.00;101909.50;5032801;28;20026;-76
2022/10/13 01:11:21;;;;;;;27.90;17.42;;;;;;;9.70;100.00;101907.69;5032434;28;20073;-92
2022/10/13 01:13:57;;;;;;;28.67;16.52;;;;;;;9.69;100.00;101903.44;4952514;29;20035;-90
2022/10/13 01:16:28;;;;;;;27.00;17.85;;;;;;;9.72;100.00;101900.72;4952299;29;20495;-79
2022/10/13 01:19:04;;;;;;;27.92;17.38;;;;;;;9.61;100.00;101888.28;4952436;29;20039;-73
2022/10/13 01:21:42;;;;;;;29.08;16.85;;;;;;;9.73;100.00;101902.41;4952175;29;20027;-75
2022/10/13 01:24:36;;;;;;;26.25;16.63;;;;;;;9.75;100.00;101904.03;4952429;29;20039;-76
2022/10/13 01:27:14;;;;;;;29.08;16.52;;;;;;;9.65;100.00;101876.94;4952376;29;20086;-76
2022/10/13 01:30:01;;;;;;;28.42;16.58;;;;;;;9.75;100.00;101901.44;4952119;29;20031;-77
2022/10/13 01:32:47;;;;;;;29.55;16.40;;;;;;;9.75;100.00;101898.88;4952356;29;20039;-76
2022/10/13 01:35:44;;;;;;;29.10;16.95;;;;;;;9.70;100.00;101887.06;4952029;29;20475;-78
2022/10/13 01:39:06;;;;;;;30.88;17.10;;;;;;;9.76;100.00;101904.88;4952168;28;20071;-76
2022/10/13 01:41:36;;;;;;;26.67;16.80;;;;;;;9.58;100.00;101864.38;4898938;29;20041;-75
2022/10/13 01:44:15;;;;;;;33.47;18.75;;;;;;;9.75;100.00;101887.72;4898629;29;20040;-76
2022/10/13 01:46:42;;;;;;;27.30;16.30;;;;;;;9.85;100.00;101901.06;4882554;29;20437;-77
2022/10/13 01:49:14;;;;;;;30.83;16.50;;;;;;;9.65;100.00;101847.75;4898654;29;20140;-76
2022/10/13 01:51:41;;;;;;;26.70;16.05;;;;;;;9.95;100.00;101890.28;4934323;29;20536;-76
2022/10/13 01:54:06;;;;;;;31.95;16.45;;;;;;;9.83;100.00;101861.56;4936368;29;20187;-80
2022/10/13 01:56:32;;;;;;;30.88;17.45;;;;;;;9.99;100.00;101888.38;4936156;29;20043;-76
2022/10/13 01:59:01;;;;;;;30.00;16.33;;;;;;;9.81;100.00;101847.91;4936354;29;20040;-79
2022/10/13 02:01:45;;;;;;;25.50;16.00;;;;;;;10.06;100.00;101875.16;4936266;29;20040;-75
2022/10/13 02:04:41;;;;;;;28.52;16.63;;;;;;;10.09;100.00;101871.59;4936329;29;20027;-78
2022/10/13 02:07:26;;;;;;;29.65;16.02;;;;;;;10.07;100.00;101871.66;4936129;29;20070;-75
2022/10/13 02:10:13;;;;;;;35.78;17.20;;;;;;;10.05;100.00;101862.31;4935845;29;20038;-74
2022/10/13 02:12:48;;;;;;;30.50;16.88;;;;;;;10.03;100.00;101864.16;4987833;28;20076;-76
2022/10/13 02:15:20;;;;;;;31.88;16.77;;;;;;;10.01;100.00;101858.19;5016461;28;20470;-91
2022/10/13 02:17:46;;;;;;;29.83;16.48;;;;;;;10.07;100.00;101871.66;5017026;28;20021;-92
2022/10/13 02:20:14;;;;;;;31.65;16.73;;;;;;;10.11;100.00;101863.78;4999026;28;20048;-92
2022/10/13 02:22:44;;;;;;;30.52;16.17;;;;;;;10.15;100.00;101862.75;5016266;28;20037;-92
2022/10/13 02:25:09;;;;;;;27.33;16.42;;;;;;;10.17;100.00;101859.19;5016075;28;20049;-91
2022/10/13 02:27:34;;;;;;;29.80;15.57;;;;;;;10.18;100.00;101854.88;5016055;28;20060;-75
2022/10/13 02:30:00;;;;;;;31.25;17.10;;;;;;;10.15;100.00;101842.94;5015588;28;20085;-90
2022/10/13 02:32:25;;;;;;;31.23;16.33;;;;;;;10.14;100.00;101846.44;5015564;28;20032;-92
2022/10/13 02:34:51;;;;;;;29.70;15.60;;;;;;;10.04;100.00;101834.84;5015403;28;20026;-90
2022/10/13 02:37:17;;;;;;;28.45;16.67;;;;;;;10.14;100.00;101840.44;5015125;28;20026;-90
2022/10/13 02:39:42;;;;;;;26.50;15.23;;;;;;;10.12;100.00;101845.66;5015646;28;20112;-78
2022/10/13 02:42:08;;;;;;;30.92;17.05;;;;;;;10.10;100.00;101839.72;5015256;28;20021;-90
2022/10/13 02:44:33;;;;;;;30.73;15.07;;;;;;;9.77;100.00;101790.47;5015271;28;20431;-91
2022/10/13 02:46:58;;;;;;;32.65;16.45;;;;;;;9.91;100.00;101816.47;5015224;28;20022;-82
2022/10/13 02:49:24;;;;;;;27.02;15.95;;;;;;;10.10;100.00;101844.03;5014721;28;20049;-84
2022/10/13 02:51:49;;;;;;;30.23;17.48;;;;;;;10.12;100.00;101839.66;5014020;28;20022;-87
2022/10/13 02:54:14;;;;;;;30.40;16.73;;;;;;;10.06;100.00;101830.44;5014648;28;20030;-86
2022/10/13 02:56:40;;;;;;;28.48;16.42;;;;;;;10.02;100.00;101811.66;5014920;28;20026;-89
2022/10/13 02:59:05;;;;;;;27.83;16.10;;;;;;;10.15;100.00;101824.03;5014821;28;20040;-80
2022/10/13 03:01:31;;;;;;;28.50;15.75;;;;;;;10.18;100.00;101829.88;5014869;28;20030;-76
2022/10/13 03:03:57;;;;;;;33.55;15.75;;;;;;;10.20;100.00;101827.22;5014784;28;20115;-91
2022/10/13 03:06:22;;;;;;;33.05;16.38;;;;;;;10.21;100.00;101828.91;5014727;28;20053;-76
2022/10/13 03:08:48;;;;;;;26.38;15.18;;;;;;;10.11;100.00;101810.41;4996324;28;20084;-77
2022/10/13 03:11:13;;;;;;;31.42;16.58;;;;;;;10.00;100.00;101779.94;5028159;28;20388;-81
2022/10/13 03:13:38;;;;;;;26.95;15.05;;;;;;;10.14;100.00;101807.72;5034296;28;20485;-83
2022/10/13 03:16:04;;;;;;;27.65;15.75;;;;;;;9.88;100.00;101756.44;5034207;28;20029;-76
2022/10/13 03:18:29;;;;;;;31.92;16.33;;;;;;;10.27;100.00;101820.94;5034134;28;20389;-77
2022/10/13 03:21:00;;;;;;;27.60;15.68;;;;;;;10.28;100.00;101817.44;5034077;28;20056;-91
2022/10/13 03:23:26;;;;;;;26.77;15.25;;;;;;;10.14;100.00;101796.56;5033877;28;20099;-76
2022/10/13 03:25:52;;;;;;;27.08;14.93;;;;;;;10.28;100.00;101817.44;5034044;28;20493;-89
2022/10/13 03:28:17;;;;;;;29.95;16.17;;;;;;;10.28;100.00;101823.44;5033974;28;20048;-77
2022/10/13 03:30:43;;;;;;;25.73;15.25;;;;;;;10.16;100.00;101785.25;5034240;28;20029;-78
2022/10/13 03:33:08;;;;;;;24.50;15.15;;;;;;;10.18;100.00;101788.59;5033976;28;20474;-76
2022/10/13 03:35:35;;;;;;;28.65;15.77;;;;;;;10.36;100.00;101815.34;5033559;28;20068;-78
2022/10/13 03:38:01;;;;;;;26.20;14.88;;;;;;;10.33;100.00;101805.16;5033575;28;20064;-77
2022/10/13 03:40:27;;;;;;;25.92;15.82;;;;;;;10.40;100.00;101803.13;5033722;28;20338;-76
2022/10/13 03:42:52;;;;;;;29.70;14.43;;;;;;;10.32;100.00;101780.22;5015903;28;20052;-78
2022/10/13 03:45:18;;;;;;;24.42;14.60;;;;;;;10.23;100.00;101785.84;5034041;28;20025;-79
2022/10/13 03:47:43;;;;;;;26.08;15.70;;;;;;;10.42;100.00;101798.72;5015837;28;20457;-76
2022/10/13 03:50:09;;;;;;;26.30;14.45;;;;;;;10.42;100.00;101797.00;5033384;28;20029;-76
2022/10/13 03:52:34;;;;;;;25.40;13.80;;;;;;;10.44;100.00;101796.91;5015574;28;20109;-74
2022/10/13 03:54:59;;;;;;;27.67;13.65;;;;;;;10.44;100.00;101795.16;5033322;28;20035;-90
2022/10/13 03:57:25;;;;;;;26.50;14.25;;;;;;;10.29;100.00;101764.88;5015827;28;20041;-75
2022/10/13 03:59:50;;;;;;;22.35;13.10;;;;;;;10.48;100.00;101785.53;5033625;28;20410;-75
2022/10/13 04:02:15;;;;;;;25.42;14.15;;;;;;;10.36;100.00;101765.44;5033038;28;20032;-84
2022/10/13 04:04:41;;;;;;;25.23;13.85;;;;;;;10.50;100.00;101781.13;5033245;28;20449;-76
2022/10/13 04:07:06;;;;;;;24.45;14.05;;;;;;;10.45;100.00;101776.19;5033417;28;20056;-89
2022/10/13 04:09:32;;;;;;;23.52;14.02;;;;;;;10.51;100.00;101782.78;5033040;28;20022;-90
2022/10/13 04:11:58;;;;;;;24.83;14.82;;;;;;;10.42;100.00;101763.44;5033043;28;20045;-78
2022/10/13 04:14:23;;;;;;;27.13;14.13;;;;;;;10.49;100.00;101766.53;5033287;28;20081;-84
2022/10/13 04:16:48;;;;;;;24.45;14.18;;;;;;;10.43;100.00;101759.94;5033130;28;20041;-91
2022/10/13 04:19:15;;;;;;;26.45;13.57;;;;;;;10.53;100.00;101781.00;5033127;28;20350;-77
2022/10/13 04:21:41;;;;;;;24.05;14.23;;;;;;;10.51;100.00;101777.63;5033205;28;20030;-76
2022/10/13 04:24:07;;;;;;;27.48;14.82;;;;;;;10.41;100.00;101759.16;5032897;28;20025;-75
2022/10/13 04:26:35;;;;;;;25.27;15.38;;;;;;;10.54;100.00;101783.50;5032926;28;20037;-75
2022/10/13 04:29:03;;;;;;;26.40;14.43;;;;;;;10.55;100.00;101776.59;5033083;28;20029;-76
2022/10/13 04:31:29;;;;;;;28.55;15.20;;;;;;;10.55;100.00;101774.84;5032856;28;20025;-89
2022/10/13 04:33:54;;;;;;;27.90;14.27;;;;;;;10.44;100.00;101751.28;5033034;28;20030;-76
2022/10/13 04:36:20;;;;;;;23.58;14.20;;;;;;;10.36;100.00;101743.06;5032874;28;20029;-79
2022/10/13 04:38:46;;;;;;;21.77;13.98;;;;;;;10.37;100.00;101736.13;5032902;28;20029;-75
2022/10/13 04:41:13;;;;;;;24.98;13.98;;;;;;;10.48;100.00;101760.53;5033010;28;20380;-77
2022/10/13 04:43:38;;;;;;;24.45;14.20;;;;;;;10.45;100.00;101762.44;5032963;28;20491;-79
2022/10/13 04:46:11;;;;;;;26.85;14.93;;;;;;;10.33;100.00;101753.53;5032949;28;20029;-90
2022/10/13 04:48:36;;;;;;;25.40;15.25;;;;;;;10.43;100.00;101762.53;5032866;28;20026;-78
2022/10/13 04:51:06;;;;;;;25.95;14.43;;;;;;;10.27;100.00;101748.66;5032900;28;20032;-79
2022/10/13 04:53:32;;;;;;;27.52;14.75;;;;;;;10.41;100.00;101776.38;5032731;28;20021;-88
2022/10/13 04:56:03;;;;;;;28.85;15.13;;;;;;;10.36;100.00;101761.13;5032780;28;20080;-76
2022/10/13 04:58:28;;;;;;;25.08;14.80;;;;;;;10.33;100.00;101771.59;5032791;28;20036;-76
2022/10/13 05:00:54;;;;;;;25.25;15.02;;;;;;;10.28;100.00;101766.63;5032709;28;20026;-76
2022/10/13 05:03:19;;;;;;;29.35;14.77;;;;;;;10.28;100.00;101768.38;5032736;28;20156;-90
2022/10/13 05:05:44;;;;;;;23.13;13.63;;;;;;;10.20;100.00;101762.72;5032834;28;20033;-88
2022/10/13 05:08:10;;;;;;;27.75;14.25;;;;;;;10.19;100.00;101761.03;5032938;28;20021;-76
2022/10/13 05:10:35;;;;;;;23.70;13.82;;;;;;;10.11;100.00;101738.16;5032194;28;20045;-79
2022/10/13 05:13:01;;;;;;;24.52;14.13;;;;;;;10.10;100.00;101740.81;5032652;28;20120;-89
2022/10/13 05:15:26;;;;;;;25.73;15.65;;;;;;;10.19;100.00;101748.97;5036647;28;20029;-76
2022/10/13 05:17:51;;;;;;;26.02;14.15;;;;;;;10.04;100.00;101718.72;5018801;28;20040;-79
2022/10/13 05:20:17;;;;;;;23.65;15.25;;;;;;;10.16;100.00;101745.69;5036494;28;20048;-90
2022/10/13 05:22:43;;;;;;;23.92;14.13;;;;;;;10.19;100.00;101755.88;5036396;28;20039;-76
2022/10/13 05:25:08;;;;;;;27.95;14.95;;;;;;;10.20;100.00;101765.28;5036140;28;20025;-75
2022/10/13 05:27:34;;;;;;;28.38;15.02;;;;;;;10.21;100.00;101759.22;5036302;28;20538;-76
2022/10/13 05:29:59;;;;;;;29.45;15.00;;;;;;;10.24;100.00;101759.13;5036333;28;20497;-81
2022/10/13 05:32:24;;;;;;;27.38;15.73;;;;;;;10.16;100.00;101749.13;5036310;28;20037;-76
2022/10/13 05:34:49;;;;;;;23.80;14.90;;;;;;;10.30;100.00;101761.41;5036113;28;20100;-78
2022/10/13 05:37:17;;;;;;;24.88;13.93;;;;;;;10.14;100.00;101735.44;5036258;28;20026;-81
2022/10/13 05:39:44;;;;;;;31.33;16.15;;;;;;;10.35;100.00;101772.38;5035975;28;20470;-87
2022/10/13 05:42:09;;;;;;;27.75;15.40;;;;;;;10.13;100.00;101730.34;5035810;28;20029;-76
2022/10/13 05:44:36;;;;;;;26.85;15.52;;;;;;;10.25;100.00;101740.16;5035833;28;20175;-77
2022/10/13 05:47:02;;;;;;;28.08;15.52;;;;;;;10.41;100.00;101771.22;5036170;28;20444;-76
2022/10/13 05:49:27;;;;;;;27.92;14.75;;;;;;;10.41;100.00;101768.63;5035978;28;20029;-76
2022/10/13 05:51:58;;;;;;;24.63;14.60;;;;;;;10.39;100.00;101763.56;5035994;28;20045;-76
2022/10/13 05:54:32;;;;;;;26.60;15.45;;;;;;;10.34;100.00;101745.72;5035920;28;20029;-85
2022/10/13 05:57:13;;;;;;;28.55;15.45;;;;;;;10.29;100.00;101739.06;5035782;28;20040;-77
2022/10/13 05:59:43;;;;;;;28.08;15.77;;;;;;;10.40;100.00;101757.47;5035951;28;20025;-76
2022/10/13 06:02:12;;;;;;;26.88;15.10;;;;;;;10.41;100.00;101760.91;5035749;28;20025;-79
2022/10/13 06:04:42;;;;;;;26.90;14.80;;;;;;;10.37;100.00;101744.72;5036162;28;20546;-77
2022/10/13 06:07:08;;;;;;;25.00;15.45;;;;;;;10.28;100.00;101721.91;5035681;28;20531;-80
2022/10/13 06:09:39;;;;;;;26.58;14.52;;;;;;;10.18;100.00;101705.16;5035194;28;20029;-77
2022/10/13 06:12:06;;;;;;;29.27;15.20;;;;;;;10.17;100.00;101701.75;5035708;28;20025;-81
2022/10/13 06:14:31;;;;;;;27.88;15.50;;;;;;;10.47;100.00;101751.13;5035640;28;20028;-89
2022/10/13 06:16:56;;;;;;;25.95;15.73;;;;;;;10.50;100.00;101744.97;5035407;28;20116;-76
2022/10/13 06:19:21;;;;;;;30.13;16.17;;;;;;;10.36;100.00;101719.81;5017442;28;20103;-81
2022/10/13 06:21:47;;;;;;;30.95;16.73;;;;;;;10.55;100.00;101736.09;5017155;28;20124;-86
2022/10/13 06:24:12;;;;;;;26.02;15.20;;;;;;;10.56;100.00;101740.34;5034728;28;20025;-77
2022/10/13 06:26:37;;;;;;;25.48;14.85;;;;;;;10.39;100.00;101706.75;5035162;28;20021;-80
2022/10/13 06:29:03;;;;;;;26.05;15.75;;;;;;;10.61;100.00;101751.28;5035352;28;20428;-77
2022/10/13 06:31:28;;;;;;;25.23;15.35;;;;;;;10.52;100.00;101731.09;5035339;28;20049;-87
2022/10/13 06:33:54;;;;;;;32.58;15.93;;;;;;;10.65;100.00;101753.75;5035255;28;20068;-88
2022/10/13 06:36:19;;;;;;;29.05;16.33;;;;;;;10.67;100.00;101751.91;5035148;28;20511;-78
2022/10/13 06:38:45;;;;;;;28.27;15.85;;;;;;;10.68;100.00;101732.91;5034857;28;20273;-83
2022/10/13 06:41:13;;;;;;;30.23;16.42;;;;;;;10.71;100.00;101736.16;5034958;28;20022;-86
2022/10/13 06:43:38;;;;;;;26.70;15.45;;;;;;;10.75;100.00;101734.28;5049204;28;20023;-73
2022/10/13 06:46:04;;;;;;;29.27;15.93;;;;;;;10.80;100.00;101740.06;5055412;28;20379;-74
2022/10/13 06:48:29;;;;;;;24.33;15.77;;;;;;;10.83;100.00;101738.19;5054916;28;20082;-75
2022/10/13 06:51:01;;;;;;;31.58;16.75;;;;;;;10.90;100.00;101736.09;5055548;28;20020;-82
2022/10/13 06:53:27;;;;;;;29.33;16.35;;;;;;;10.80;100.00;101714.22;5055146;28;20449;-85
2022/10/13 06:55:56;;;;;;;30.73;16.38;;;;;;;10.89;100.00;101722.34;5054356;28;20115;-86
2022/10/13 06:58:21;;;;;;;27.70;17.15;;;;;;;10.71;100.00;101681.09;5054924;28;20025;-73
2022/10/13 07:00:46;;;;;;;31.15;15.38;;;;;;;11.00;100.00;101726.97;5054973;28;20112;-87
2022/10/13 07:03:12;;;;;;;27.58;16.75;;;;;;;10.91;100.00;101717.97;5054836;28;20078;-86
2022/10/13 07:05:37;;;;;;;30.17;16.63;;;;;;;11.03;100.00;101737.19;5054438;28;20380;-85
2022/10/13 07:08:02;;;;;;;26.17;16.17;;;;;;;10.84;100.00;101715.75;5036204;28;20044;-85
2022/10/13 07:10:28;;;;;;;27.95;16.40;;;;;;;10.91;100.00;101715.38;5054113;28;20045;-89
2022/10/13 07:12:53;;;;;;;27.15;16.08;;;;;;;11.08;100.00;101735.19;5054273;28;20025;-88
2022/10/13 07:15:19;;;;;;;28.58;15.80;;;;;;;10.94;100.00;101709.22;5037015;28;20120;-88
2022/10/13 07:17:44;;;;;;;26.10;15.32;;;;;;;11.13;100.00;101735.81;5054277;28;20021;-78
2022/10/13 07:20:10;;;;;;;25.83;15.57;;;;;;;11.19;100.00;101738.06;5054207;28;20017;-84
2022/10/13 07:22:35;;;;;;;24.80;15.43;;;;;;;11.22;100.00;101737.09;5054284;28;20036;-86
2022/10/13 07:25:00;;;;;;;28.73;16.40;;;;;;;11.16;100.00;101729.63;5054107;28;20029;-84
2022/10/13 07:27:26;;;;;;;26.02;16.90;;;;;;;11.21;100.00;101725.06;5053972;28;20464;-81
2022/10/13 07:29:52;;;;;;;29.52;16.10;;;;;;;11.20;100.00;101728.53;5054119;28;20039;-85
2022/10/13 07:32:17;;;;;;;27.33;16.02;;;;;;;11.23;100.00;101725.00;5054095;28;20111;-87
2022/10/13 07:34:42;;;;;;;29.20;17.23;;;;;;;11.36;100.00;101754.47;5053568;28;20029;-87
2022/10/13 07:37:08;;;;;;;24.67;15.45;;;;;;;11.28;100.00;101741.94;5053153;28;20029;-86
2022/10/13 07:39:33;;;;;;;30.00;15.73;;;;;;;11.26;100.00;101724.81;5053874;28;20036;-81
2022/10/13 07:41:58;;;;;;;29.20;16.55;;;;;;;11.25;100.00;101724.00;5050332;28;20064;-78
2022/10/13 07:44:24;;;;;;;30.13;16.42;;;;;;;11.35;100.00;101743.28;5033915;28;20064;-81
2022/10/13 07:46:49;;;;;;;28.48;16.50;;;;;;;11.28;100.00;101715.22;5034139;28;20029;-74
2022/10/13 07:49:15;;;;;;;25.55;15.32;;;;;;;11.45;100.00;101741.06;5033533;28;20036;-81
2022/10/13 07:51:41;;;;;;;26.35;15.93;;;;;;;11.25;100.00;101695.56;5033673;28;20029;-82
2022/10/13 07:54:06;;;;;;;27.15;15.70;;;;;;;11.48;100.00;101715.03;5015707;28;20501;-80
2022/10/13 07:56:31;;;;;;;25.88;14.73;;;;;;;11.61;100.00;101726.41;5032669;28;20052;-80
2022/10/13 07:58:57;;;;;;;31.05;15.68;;;;;;;11.71;100.00;101727.59;5033679;28;20017;-79
2022/10/13 08:01:23;;;;;;;25.27;15.43;;;;;;;11.76;100.00;101722.16;5033340;28;20060;-77
2022/10/13 08:03:48;;;;;;;27.23;15.43;;;;;;;11.93;99.95;101734.25;5033577;28;20034;-80
2022/10/13 08:06:13;;;;;;;29.58;15.60;;;;;;;12.08;99.51;101741.16;5033416;28;20045;-80
2022/10/13 08:08:39;;;;;;;26.40;16.10;;;;;;;12.15;99.53;101747.69;5033303;28;20452;-76
2022/10/13 08:11:08;;;;;;;24.83;15.45;;;;;;;12.09;99.08;101722.09;5033108;28;20049;-77
2022/10/13 08:13:34;;;;;;;28.33;16.40;;;;;;;12.28;98.27;101735.72;5033395;28;20036;-76
2022/10/13 08:16:00;;;;;;;24.00;15.70;;;;;;;12.12;98.57;101709.00;5033283;28;20026;-72
2022/10/13 08:18:26;;;;;;;29.92;17.85;;;;;;;12.42;97.70;101736.72;5014977;28;20038;-75
2022/10/13 08:20:52;;;;;;;26.35;17.50;;;;;;;12.48;97.43;101732.00;5033274;28;20032;-81
2022/10/13 08:23:17;;;;;;;31.73;17.45;;;;;;;12.53;96.90;101732.59;5033121;28;20021;-75
2022/10/13 08:25:43;;;;;;;31.70;17.63;;;;;;;12.55;97.11;101727.31;5033291;28;20029;-73
2022/10/13 08:28:22;;;;;;;31.58;16.65;;;;;;;12.54;96.83;101718.72;5033100;28;20489;-75
2022/10/13 08:30:49;;;;;;;26.52;15.98;;;;;;;12.62;96.47;101720.88;5032941;28;20018;-73
2022/10/13 08:33:14;;;;;;;24.35;16.58;;;;;;;12.67;95.80;101718.84;5015274;28;20064;-81
2022/10/13 08:35:41;;;;;;;28.90;17.40;;;;;;;12.73;95.72;101718.50;5032969;28;20108;-81
2022/10/13 08:38:06;;;;;;;24.05;16.15;;;;;;;12.82;95.32;101727.50;5033006;28;20553;-76
2022/10/13 08:40:32;;;;;;;23.75;15.80;;;;;;;12.93;94.86;101718.16;5032942;28;20104;-81
2022/10/13 08:42:58;;;;;;;25.23;16.55;;;;;;;12.96;94.20;101709.38;5032738;28;20032;-82
2022/10/13 08:45:30;;;;;;;32.80;17.20;;;;;;;12.96;93.92;101695.56;5032854;28;20029;-75
2022/10/13 08:48:00;;;;;;;28.27;16.13;;;;;;;13.17;93.89;101720.22;5034393;28;20025;-74
2022/10/13 08:50:30;;;;;;;26.13;16.53;;;;;;;13.27;93.23;101705.81;5037158;28;20026;-83
2022/10/13 08:53:00;;;;;;;29.83;16.50;;;;;;;13.12;91.88;101667.81;5037015;28;20433;-82
2022/10/13 08:55:37;;;;;;;26.80;16.45;;;;;;;13.48;92.17;101719.28;5036866;28;20091;-73
2022/10/13 08:58:12;;;;;;;26.10;15.88;;;;;;;13.51;91.34;101713.06;5036609;28;20025;-73
2022/10/13 09:00:37;;;;;;;28.25;16.38;;;;;;;13.51;nan;101721.66;5036992;28;20435;-76
2022/10/13 09:03:27;;;;;;;25.90;15.77;;;;;;;13.54;91.28;101720.63;5036761;28;20026;-81
2022/10/13 09:06:10;;;;;;;29.30;15.75;;;;;;;13.51;91.00;101716.47;5036634;28;20053;-74
2022/10/13 09:08:43;;;;;;;24.42;15.70;;;;;;;13.41;90.87;101698.03;5036583;28;20036;-72
2022/10/13 09:11:10;;;;;;;25.10;15.23;;;;;;;13.54;91.09;101718.03;5036224;28;20045;-73
2022/10/13 09:13:36;;;;;;;24.58;14.40;;;;;;;13.45;89.86;101698.69;5036273;28;20112;-74
2022/10/13 09:16:01;;;;;;;26.27;15.77;;;;;;;13.42;90.59;101707.50;5036439;28;20026;-77
2022/10/13 09:18:30;;;;;;;23.15;14.43;;;;;;;13.33;90.58;101705.47;5036410;28;20454;-73
2022/10/13 09:21:17;;;;;;;25.13;15.25;;;;;;;13.29;91.62;101703.16;5036390;28;20036;-75
2022/10/13 09:23:42;;;;;;;25.35;15.27;;;;;;;13.19;91.79;101706.28;5036530;28;20049;-70
2022/10/13 09:26:14;;;;;;;27.42;16.67;;;;;;;13.07;91.48;101698.34;5036122;28;20032;-80
2022/10/13 09:28:40;;;;;;;22.20;14.57;;;;;;;12.99;92.13;101685.03;5036243;28;20030;-78
2022/10/13 09:31:26;;;;;;;24.23;15.20;;;;;;;12.99;92.25;101691.06;5036305;28;20169;-76
2022/10/13 09:34:00;;;;;;;30.23;16.55;;;;;;;13.01;91.95;101693.56;5036433;28;20021;-78
2022/10/13 09:36:26;;;;;;;26.55;16.30;;;;;;;13.04;92.54;101694.19;5035908;28;20037;-84
2022/10/13 09:39:11;;;;;;;27.30;16.02;;;;;;;13.25;93.16;101709.44;5018352;28;20041;-77
2022/10/13 09:41:38;;;;;;;27.13;15.88;;;;;;;13.28;92.32;101694.53;5035225;28;20033;-75
2022/10/13 09:44:12;;;;;;;25.15;16.45;;;;;;;13.52;92.04;101704.34;5036140;28;20029;-77
2022/10/13 09:46:46;;;;;;;28.95;16.17;;;;;;;13.63;91.42;101701.91;5034868;28;20031;-76
2022/10/13 09:49:39;;;;;;;28.27;14.93;;;;;;;13.69;91.60;101693.75;5036237;28;20105;-80
2022/10/13 09:52:18;;;;;;;25.17;15.23;;;;;;;13.70;90.46;101698.84;5032503;28;20092;-77
2022/10/13 09:54:45;;;;;;;26.45;15.48;;;;;;;13.71;90.45;101697.09;5035798;28;20443;-79
2022/10/13 09:57:16;;;;;;;26.73;15.98;;;;;;;13.66;89.64;101696.53;5035855;28;20112;-74
2022/10/13 09:59:47;;;;;;;24.83;15.23;;;;;;;13.60;90.33;101696.91;5035185;28;20079;-75
2022/10/13 10:02:30;;;;;;;24.02;15.23;;;;;;;13.53;91.29;101698.22;5035912;28;20424;-75
2022/10/13 10:05:02;;;;;;;27.15;15.30;;;;;;;13.44;91.00;101703.03;5035770;28;20056;-76
2022/10/13 10:07:31;;;;;;;26.27;15.20;;;;;;;13.32;92.45;101690.00;5035560;28;20124;-78
2022/10/13 10:10:05;;;;;;;26.48;15.30;;;;;;;13.26;91.86;101692.94;5035323;28;20033;-79
2022/10/13 10:12:35;;;;;;;31.23;16.65;;;;;;;13.17;92.38;101696.88;5035574;28;20032;-77
2022/10/13 10:17:57;;;;;;;27.55;15.95;;;;;;;13.12;93.02;101688.56;5052224;28;20110;-77
2022/10/13 10:20:51;;;;;;;28.77;17.35;;;;;;;13.03;93.74;101655.41;5055182;28;20076;-78
2022/10/13 10:23:41;;;;;;;30.50;16.95;;;;;;;13.16;94.30;101677.06;5055147;28;20203;-79
2022/10/13 10:26:28;;;;;;;26.73;16.33;;;;;;;13.10;94.84;101683.47;5055183;28;20029;-77
2022/10/13 10:29:00;;;;;;;26.83;16.55;;;;;;;13.10;95.53;101685.22;5055078;28;20370;-74
2022/10/13 10:31:33;;;;;;;28.05;15.80;;;;;;;13.08;96.00;101689.69;5055147;28;20028;-79
2022/10/13 10:34:12;;;;;;;27.90;18.38;;;;;;;12.98;96.25;101692.00;5055090;28;20025;-74
2022/10/13 10:36:56;;;;;;;28.88;19.80;;;;;;;12.86;96.77;101674.53;5037072;28;20441;-76
2022/10/13 10:39:47;;;;;;;29.05;19.95;;;;;;;12.87;97.84;101686.56;5074020;28;20145;-79
2022/10/13 10:42:31;;;;;;;31.48;20.73;;;;;;;12.85;98.22;101683.25;5075412;28;20039;-76
2022/10/13 10:45:02;;;;;;;33.53;20.05;;;;;;;12.80;98.83;101680.09;5074873;28;20115;-77
2022/10/13 10:47:38;;;;;;;25.50;18.17;;;;;;;12.82;99.41;101678.25;5074752;28;20024;-80
2022/10/13 10:50:06;;;;;;;26.40;17.13;;;;;;;12.71;99.20;101660.75;5074719;28;20278;-81
2022/10/13 10:53:05;;;;;;;28.83;18.02;;;;;;;12.85;99.69;101688.44;5074866;28;20452;-78
2022/10/13 10:55:48;;;;;;;30.73;18.40;;;;;;;12.90;100.00;101678.63;5074709;28;20031;-76
2022/10/13 10:58:25;;;;;;;30.92;19.05;;;;;;;12.96;100.00;101686.03;5074834;28;20047;-80
2022/10/13 11:01:12;;;;;;;31.60;18.85;;;;;;;13.05;99.69;101682.91;5074465;28;20026;-81
2022/10/13 11:04:00;;;;;;;32.15;19.65;;;;;;;13.14;99.94;101666.78;5074410;28;20028;-78
2022/10/13 11:06:36;;;;;;;33.53;20.25;;;;;;;13.22;99.46;101665.53;5074501;28;20039;-81
2022/10/13 11:09:04;;;;;;;27.20;17.40;;;;;;;13.08;98.57;101643.84;5074519;28;20028;-77
2022/10/13 11:11:36;;;;;;;30.33;17.65;;;;;;;12.96;98.82;101634.19;5073486;28;20030;-76
2022/10/13 11:14:04;;;;;;;27.10;18.10;;;;;;;13.13;98.59;101661.69;5074298;28;20060;-80
2022/10/13 11:16:38;;;;;;;29.33;17.77;;;;;;;13.04;98.20;101659.66;5074069;28;20049;-79
2022/10/13 11:19:25;;;;;;;30.33;18.67;;;;;;;12.94;98.81;101641.22;5074083;28;20041;-76